Main page
METAR-TAF:

METAR-TAF

Airports :

Gloucestershire Airport

Gloucester, England

latitude: 51-54N, longitude: 002-10W, elevation: 29 m

Current weather observation

The report was made 11 hours and 56 minutes ago, at 17:50 UTC
Wind 6 kt from the Southwest, varying between South/Southwest and West
Temperature 19°C
Humidity 83%
Pressure 1012 hPa
Visibility 10 km or more
Few clouds at a height of 3500 ft
showers in vicinity

METAR: EGBJ 161750Z 23006KT 200V270 9999 VCSH FEW035 19/16 Q1012

Time: 06:46 (05:46 UTC)

Forecast

The report was made 13 hours and 13 minutes ago, at 16:33 UTC
Forecast valid from 16 at 16 UTC to 16 at 19 UTC
Wind 9 kt from the West/Southwest
Visibility 10 km or more
Few clouds at a height of 4000 ft
Probability 30% :
Temporary
from 16 at 16 UTC to 16 at 19 UTC
Visibility: 7000 m
rain showers

TAF: EGBJ 161633Z 1616/1619 25009KT 9999 FEW040 PROB30 TEMPO 1616/1619 7000 SHRA

Weather observations and forecasts of more than 4000 airports (METAR and TAF reports).

The available stations are represented by yellow and red dots on the map.

Hover mouse over dot to see the name of the station.

Then click to see weather observations and forecasts.

To change the map : click on the green buttons with a black cross to zoom in, on the green button with a dash to zoom out, or on the green arrows for adjacent maps.


METAR-TAF: